ADDS METAR Data INFO
IDs: Format: Raw Decoded Include TAF

Data at: 1108 UTC 17 Jul 2018

KFWA 171054Z 29004KT 10SM FEW100 18/17 A3000 RMK AO2 SLP153 T01780167 $
KFWA 170954Z 29005KT 10SM FEW250 17/16 A2998 RMK AO2 SLP146 T01720161 $
KFWA 170854Z 31004KT 10SM FEW250 19/16 A2997 RMK AO2 SLP143 T01890161 53004 $
KFWA 170754Z 34003KT 10SM FEW260 19/16 A2996 RMK AO2 SLP141 T01890161 $
KFWA 170654Z 33005KT 10SM CLR 21/17 A2996 RMK AO2 SLP139 T02060167 $
KFWA 170554Z 32005KT 10SM FEW160 22/18 A2996 RMK AO2 SLP137 T02220178 10278 20222 51006 $
KFWA 170454Z 33006KT 10SM FEW030 FEW150 24/20 A2995 RMK AO2 SLP135 T02390200 403170217 $
KFWA 170354Z 34007KT 10SM FEW140 24/22 A2995 RMK AO2 SLP133 T02440222 $
KFWA 170254Z 28006KT 10SM FEW140 24/24 A2994 RMK AO2 SLP130 T02440239 53013 $
KFWA 170154Z 29004KT 10SM FEW043 FEW130 25/24 A2991 RMK AO2 SLP121 T02500239 $
KFWA 170054Z 24003KT 10SM FEW040 FEW130 SCT250 26/24 A2990 RMK AO2 SLP117 TCU DSNT NW T02610239 $
KFWA 162354Z COR 27004KT 10SM FEW042 SCT150 SCT230 28/23 A2990 RMK AO2 SLP117 60013 T02780233 10317 20239 50000 $
KFWA 162254Z 27008KT 10SM FEW040 FEW140 BKN230 27/23 A2989 RMK AO2 SLP115 TCU DSNT NW T02670233 $
KFWA 162154Z 26004KT 10SM FEW046 SCT120 BKN220 26/23 A2991 RMK AO2 SLP122 CB DSNT NE AND SE-SW MOV SE TCU DSNT NW T02560228 $
KFWA 162054Z 33004KT 10SM FEW045 SCT110 BKN220 24/22 A2990 RMK AO2 LTG DSNT SW RAE27 TSE17 SLP118 CB DSNT NE AND SE-SW MOV SE TCU DSNT NW P0000 60001 T02440222 58010 $
KFWA 162019Z 30006KT 10SM -RA SCT042 BKN110 BKN250 24/22 A2991 RMK AO2 LTG DSNT SW AND W TSE17 CB DSNT E-S-SW MOV SE TCU DSNT NE P0000 T02390222 $
KFWA 161954Z 31004KT 9SM -TSRA FEW023 BKN047CB BKN100 BKN200 24/22 A2992 RMK AO2 LTG DSNT E AND SW AND W RAB1859 TSB03 SLP127 OCNL LTGIC VC SE-SW TS VC SE-SW MOV SE P0001 T02390222 $
KFWA 161903Z 32004KT 10SM -TSRA BKN033 BKN095 BKN250 29/23 A2991 RMK AO2 LTG DSNT W AND NW RAB1859 TSB03 OCNL LTGIC DSNT NW TS DSNT NW MOV SE CB DSNT NE MOV NE P0000 T02940233 $
KFWA 161854Z 30006KT 10SM BKN033 BKN100 BKN250 30/23 A2991 RMK AO2 LTG DSNT W AND NW SLP122 CB DSNT NW MOV SE TCU DSNT NE-E T03000233 $
KFWA 161754Z 28007KT 10SM SCT031TCU BKN090 BKN250 30/24 A2993 RMK AO2 SLP127 TCU S-SW 60000 T03000239 10311 20233 58016 $
KFWA 161654Z 23004G15KT 10SM SCT028 BKN110 BKN250 30/23 A2995 RMK AO2 SLP135 CB DSNT NW MOV E T03000233 $
KFWA 161554Z 28003KT 10SM FEW023 SCT060CB SCT110 BKN250 28/24 A2997 RMK AO2 RAB30E42 SLP141 CB NE-SE MOV E TCU S AND NW-N P0000 T02830239 $
KFWA 161544Z 33003KT 10SM FEW019 SCT031CB BKN060 BKN250 27/24 A2997 RMK AO2 RAB30E42 CB NE-SE MOV E TCU S AND NW P0000 T02720244 $
KFWA 161515Z 23004KT 10SM FEW010 BKN015CB BKN120 BKN250 28/24 A2997 RMK AO2 CB SE AND W-NW MOV E T02780244 $
KFWA 161454Z 24004KT 9SM BKN013TCU BKN120 BKN250 27/24 A2998 RMK AO2 LTG DSNT N SLP144 TCU SE 60000 T02720239 56001 $
KFWA 161354Z 26009KT 8SM FEW011 FEW035 BKN130 BKN250 26/23 A2998 RMK AO2 RAB42E54 SLP144 P0000 T02610233
KFWA 161254Z 21004KT 10SM FEW026 SCT070 BKN150 BKN200 24/23 A2997 RMK AO2 RAB24E35 SLP143 P0000 T02390228
KFWA 161154Z 26004KT 9SM FEW026 SCT065 BKN090 BKN200 23/22 A2998 RMK AO2 SLP145 T02330222 10233 20217 53003
KFWA 161054Z 21003KT 9SM FEW028 SCT060 BKN160 BKN250 23/22 A2997 RMK AO2 SLP140 T02280222
KFWA 160954Z 22005KT 10SM FEW029 SCT046 BKN150 BKN250 23/22 A2996 RMK AO2 SLP139 T02280222
KFWA 160854Z 19005KT 10SM SCT023 SCT070 BKN130 BKN250 22/22 A2997 RMK AO2 SLP140 T02220217 55005
KFWA 160754Z 23003KT 10SM FEW060 SCT120 SCT250 22/22 A2996 RMK AO2 SLP139 T02220217
KFWA 160654Z 23003KT 10SM FEW030 FEW130 SCT250 22/22 A2998 RMK AO2 SLP145 T02220217
KFWA 160554Z 21003KT 10SM SCT130 SCT250 22/22 A2998 RMK AO2 SLP147 T02220217 10278 20222 58001
KFWA 160454Z 19003KT 10SM FEW250 23/22 A2999 RMK AO2 SLP149 T02280222 403170228
KFWA 160354Z 20004KT 10SM SCT250 23/22 A2999 RMK AO2 SLP148 T02280222
KFWA 160254Z 17004KT 10SM BKN250 23/22 A2999 RMK AO2 SLP147 T02330222 53008
KFWA 160154Z 16004KT 10SM SCT140 SCT250 24/22 A2997 RMK AO2 SLP141 T02440217
KFWA 160054Z 20003KT 10SM FEW045 SCT140 SCT250 26/22 A2996 RMK AO2 SLP139 CB DSNT NW T02560217
KFWA 152354Z 22006KT 10SM FEW047 SCT110 SCT250 28/21 A2996 RMK AO2 SLP139 T02780211 10317 20278 56006